Bridgetown, Canada
Current Conditions -  °F | °C
As of 8:00 AM on Friday 19 Dec 2014 (Local Time) from CYZX Reporting Station
Snow Showers Snow Showers  
Wind Chill: 24°   Ceiling: 2100
Heat Index: 32°   Visibility: 10mi
Dew Point: 30°   Wind: 10mph
Humidity: 93%   Direction: 300°WNW
Pressure: 29.66"   Gusts: NA
Location:  44.85°N, 65.15°W
Report Text: CYZX 191200Z 30009KT 10SM -SHSN OVC021 00/M01 A2966 RMK SC8 WNDY HILL 34012G22KT PCPN VRY LGT SLP047
Loading
Personal Weather Stations






























Interactive Weather Map New forecast layout! Learn more

10-Day Weather Forecast

Advertisements
Track Severe Weather on mobile